Time;durP1;ratioP1;P1;durP2;ratioP2;P2;SDS_P1;SDS_P2;PMS_P1;PMS_P2;Temp;Humidity;BMP_temperature;BMP_pressure;BME280_temperature;BME280_humidity;BME280_pressure;Samples;Min_cycle;Max_cycle;Signal;HPM_P1;HPM_P2
2022/10/05 00:01:33;;;;;;;;;;;10.20;85.80;;;;;;5043562;28;19960;-75
2022/10/05 00:04:06;;;;;;;;;;;10.20;85.90;;;;;;5045148;28;20378;-76
2022/10/05 00:06:32;;;;;;;;;;;10.20;86.00;;;;;;5044824;28;19925;-75
2022/10/05 00:09:01;;;;;;;;;;;10.20;86.10;;;;;;5046433;28;19974;-74
2022/10/05 00:11:34;;;;;;;;;;;10.20;86.10;;;;;;5039032;28;19929;-76
2022/10/05 00:14:06;;;;;;;;;;;10.30;86.00;;;;;;5043067;28;20394;-75
2022/10/05 00:16:34;;;;;;;;;;;10.20;85.80;;;;;;5046856;28;19929;-74
2022/10/05 00:19:19;;;;;;;;;;;10.20;85.70;;;;;;5045957;28;19924;-77
2022/10/05 00:21:45;;;;;;;;;;;10.20;85.90;;;;;;5026689;28;19925;-75
2022/10/05 00:24:15;;;;;;;;;;;10.10;86.00;;;;;;5039037;28;20008;-73
2022/10/05 00:26:42;;;;;;;;;;;10.10;85.90;;;;;;5042361;28;19973;-75
2022/10/05 00:29:13;;;;;;;;;;;10.10;85.80;;;;;;5046285;28;19947;-77
2022/10/05 00:31:39;;;;;;;;;;;10.10;85.70;;;;;;5039119;28;19925;-76
2022/10/05 00:34:06;;;;;;;;;;;10.10;85.70;;;;;;5039585;28;20033;-74
2022/10/05 00:36:33;;;;;;;;;;;10.00;85.70;;;;;;5024190;28;19928;-76
2022/10/05 00:39:01;;;;;;;;;;;10.00;85.80;;;;;;5042789;28;19924;-76
2022/10/05 00:41:32;;;;;;;;;;;10.00;85.90;;;;;;5024796;28;20286;-76
2022/10/05 00:44:13;;;;;;;;;;;10.00;85.80;;;;;;5037475;28;19932;-75
2022/10/05 00:46:46;;;;;;;;;;;9.90;85.90;;;;;;5043528;28;21607;-76
2022/10/05 00:49:19;;;;;;;;;;;9.90;86.00;;;;;;5045735;28;19951;-76
2022/10/05 00:51:49;;;;;;;;;;;9.90;85.90;;;;;;5042327;28;19929;-76
2022/10/05 00:54:22;;;;;;;;;;;9.90;85.70;;;;;;5044338;28;19931;-75
2022/10/05 00:56:59;;;;;;;;;;;9.90;85.70;;;;;;5043028;28;20383;-75
2022/10/05 00:59:31;;;;;;;;;;;9.80;85.90;;;;;;5014569;28;19932;-75
2022/10/05 01:01:59;;;;;;;;;;;9.70;86.00;;;;;;5034231;28;20278;-77
2022/10/05 01:04:29;;;;;;;;;;;9.80;86.20;;;;;;5045964;28;19944;-75
2022/10/05 01:07:00;;;;;;;;;;;9.70;86.30;;;;;;5039327;28;19932;-75
2022/10/05 01:09:33;;;;;;;;;;;9.80;86.30;;;;;;5044200;28;20008;-74
2022/10/05 01:12:07;;;;;;;;;;;9.80;86.40;;;;;;5026944;28;19928;-76
2022/10/05 01:14:37;;;;;;;;;;;9.90;86.40;;;;;;5045934;28;19925;-75
2022/10/05 01:17:07;;;;;;;;;;;9.90;86.50;;;;;;5041288;28;20332;-77
2022/10/05 01:19:42;;;;;;;;;;;9.80;86.60;;;;;;5045867;28;20408;-76
2022/10/05 01:22:13;;;;;;;;;;;9.80;86.60;;;;;;5027331;28;19932;-75
2022/10/05 01:24:44;;;;;;;;;;;9.80;86.60;;;;;;5019762;28;19929;-76
2022/10/05 01:27:18;;;;;;;;;;;9.90;86.60;;;;;;5043419;28;20016;-76
2022/10/05 01:29:52;;;;;;;;;;;9.90;86.60;;;;;;5044879;28;19936;-77
2022/10/05 01:32:23;;;;;;;;;;;9.90;86.70;;;;;;5043222;28;19983;-75
2022/10/05 01:34:53;;;;;;;;;;;9.80;86.80;;;;;;5042743;28;19940;-78
2022/10/05 01:37:24;;;;;;;;;;;9.80;86.90;;;;;;5024981;28;19925;-76
2022/10/05 01:39:54;;;;;;;;;;;9.80;86.90;;;;;;5020692;28;20007;-76
2022/10/05 01:42:25;;;;;;;;;;;9.80;86.80;;;;;;5045300;28;19964;-76
2022/10/05 01:44:57;;;;;;;;;;;9.80;86.80;;;;;;5045266;28;19925;-75
2022/10/05 01:47:30;;;;;;;;;;;9.70;86.80;;;;;;5044292;28;19929;-75
2022/10/05 01:49:59;;;;;;;;;;;9.70;86.90;;;;;;5042136;28;20019;-74
2022/10/05 01:52:30;;;;;;;;;;;9.70;86.90;;;;;;5027732;28;20379;-75
2022/10/05 01:55:02;;;;;;;;;;;9.70;86.80;;;;;;5013841;28;19987;-75
2022/10/05 01:57:34;;;;;;;;;;;9.60;86.80;;;;;;5026707;28;19936;-76
2022/10/05 02:00:05;;;;;;;;;;;9.70;86.70;;;;;;5035325;28;20500;-74
2022/10/05 02:02:42;;;;;;;;;;;9.60;86.60;;;;;;5024344;28;20363;-76
2022/10/05 02:05:10;;;;;;;;;;;9.60;86.60;;;;;;5044223;28;19937;-77
2022/10/05 02:07:39;;;;;;;;;;;9.60;86.40;;;;;;5036336;28;20011;-78
2022/10/05 02:10:12;;;;;;;;;;;9.60;86.40;;;;;;5037187;28;19935;-76
2022/10/05 02:12:40;;;;;;;;;;;9.50;86.40;;;;;;5047646;28;20011;-77
2022/10/05 02:15:11;;;;;;;;;;;9.50;86.30;;;;;;5030187;28;19963;-78
2022/10/05 02:17:42;;;;;;;;;;;9.50;86.40;;;;;;5038524;28;20050;-76
2022/10/05 02:20:11;;;;;;;;;;;9.40;86.40;;;;;;5040532;28;19929;-77
2022/10/05 02:22:39;;;;;;;;;;;9.50;86.30;;;;;;5042811;28;19925;-77
2022/10/05 02:25:10;;;;;;;;;;;9.40;86.30;;;;;;5025451;28;19952;-76
2022/10/05 02:27:39;;;;;;;;;;;9.40;86.20;;;;;;5045627;28;19929;-75
2022/10/05 02:30:10;;;;;;;;;;;9.50;86.00;;;;;;5038736;28;20023;-77
2022/10/05 02:32:44;;;;;;;;;;;9.50;85.80;;;;;;5035830;28;19925;-76
2022/10/05 02:35:13;;;;;;;;;;;9.40;85.90;;;;;;5046952;28;20002;-77
2022/10/05 02:37:43;;;;;;;;;;;9.40;86.10;;;;;;5039938;28;20389;-78
2022/10/05 02:40:16;;;;;;;;;;;9.30;86.10;;;;;;5023494;28;19935;-77
2022/10/05 02:42:47;;;;;;;;;;;9.40;86.00;;;;;;5040309;28;19943;-77
2022/10/05 02:45:19;;;;;;;;;;;9.30;86.10;;;;;;5027971;28;19925;-76
2022/10/05 02:47:50;;;;;;;;;;;9.30;86.20;;;;;;5049123;28;20019;-77
2022/10/05 02:50:23;;;;;;;;;;;9.30;86.20;;;;;;5040420;28;19928;-76
2022/10/05 02:52:53;;;;;;;;;;;9.30;86.00;;;;;;5040237;28;20013;-75
2022/10/05 02:55:24;;;;;;;;;;;9.30;86.00;;;;;;5044336;28;20478;-77
2022/10/05 02:57:57;;;;;;;;;;;9.30;86.00;;;;;;5011317;28;19932;-78
2022/10/05 03:00:31;;;;;;;;;;;9.30;86.00;;;;;;5029959;28;19924;-77
2022/10/05 03:03:01;;;;;;;;;;;9.20;86.00;;;;;;5024176;28;20436;-74
2022/10/05 03:05:30;;;;;;;;;;;9.20;86.10;;;;;;5045294;28;19932;-76
2022/10/05 03:08:00;;;;;;;;;;;9.20;86.20;;;;;;5025085;28;19995;-73
2022/10/05 03:10:29;;;;;;;;;;;9.30;86.20;;;;;;5039462;28;19972;-75
2022/10/05 03:13:01;;;;;;;;;;;9.30;86.00;;;;;;5017922;28;19936;-76
2022/10/05 03:15:44;;;;;;;;;;;9.30;86.10;;;;;;5034308;28;19933;-77
2022/10/05 03:18:16;;;;;;;;;;;9.20;86.10;;;;;;5031291;28;19925;-75
2022/10/05 03:20:46;;;;;;;;;;;9.20;86.10;;;;;;5028811;28;20383;-77
2022/10/05 03:23:20;;;;;;;;;;;9.20;86.20;;;;;;5036595;28;19933;-77
2022/10/05 03:25:55;;;;;;;;;;;9.20;86.20;;;;;;5032935;28;20015;-77
2022/10/05 03:28:24;;;;;;;;;;;9.20;86.20;;;;;;5028347;28;20302;-74
2022/10/05 03:30:57;;;;;;;;;;;9.20;86.30;;;;;;5026504;28;20361;-76
2022/10/05 03:33:28;;;;;;;;;;;9.10;86.20;;;;;;5029422;28;20020;-76
2022/10/05 03:35:59;;;;;;;;;;;9.20;86.20;;;;;;5046122;28;19929;-77
2022/10/05 03:38:32;;;;;;;;;;;9.10;86.30;;;;;;5039757;28;20307;-75
2022/10/05 03:41:00;;;;;;;;;;;9.10;86.20;;;;;;5036881;28;19935;-76
2022/10/05 03:43:39;;;;;;;;;;;9.10;86.10;;;;;;5037410;28;19963;-78
2022/10/05 03:46:11;;;;;;;;;;;9.00;86.10;;;;;;5020334;28;20138;-78
2022/10/05 03:48:42;;;;;;;;;;;8.90;86.10;;;;;;5025586;28;19933;-78
2022/10/05 03:51:14;;;;;;;;;;;8.90;86.30;;;;;;5044059;28;19937;-77
2022/10/05 03:53:43;;;;;;;;;;;8.90;86.40;;;;;;5037625;28;20036;-77
2022/10/05 03:56:13;;;;;;;;;;;8.90;86.40;;;;;;5035187;28;19933;-77
2022/10/05 03:58:42;;;;;;;;;;;8.90;86.40;;;;;;5016189;28;20354;-77
2022/10/05 04:01:15;;;;;;;;;;;8.90;86.40;;;;;;5043697;28;20333;-76
2022/10/05 04:03:44;;;;;;;;;;;8.90;86.30;;;;;;5042768;28;19992;-77
2022/10/05 04:06:14;;;;;;;;;;;8.90;86.40;;;;;;5040584;28;19928;-78
2022/10/05 04:08:44;;;;;;;;;;;8.90;86.30;;;;;;5033108;28;19991;-76
2022/10/05 04:11:14;;;;;;;;;;;8.90;86.30;;;;;;5044367;28;19925;-78
2022/10/05 04:13:44;;;;;;;;;;;8.90;86.30;;;;;;5026043;28;20249;-78
2022/10/05 04:16:14;;;;;;;;;;;8.90;86.40;;;;;;5028649;28;19928;-77
2022/10/05 04:18:44;;;;;;;;;;;8.90;86.40;;;;;;5024752;28;20007;-77
2022/10/05 04:21:13;;;;;;;;;;;8.90;86.40;;;;;;5038529;28;19952;-77
2022/10/05 04:23:44;;;;;;;;;;;8.80;86.50;;;;;;5041759;28;19929;-76
2022/10/05 04:26:13;;;;;;;;;;;8.80;86.60;;;;;;5027859;28;19929;-78
2022/10/05 04:28:43;;;;;;;;;;;8.90;86.60;;;;;;5034593;28;19952;-78
2022/10/05 04:31:12;;;;;;;;;;;8.90;86.20;;;;;;5037750;28;19940;-78
2022/10/05 04:33:42;;;;;;;;;;;8.90;86.10;;;;;;5044300;28;20365;-76
2022/10/05 04:36:13;;;;;;;;;;;8.90;86.10;;;;;;5040315;28;19971;-77
2022/10/05 04:38:47;;;;;;;;;;;8.80;86.20;;;;;;5027798;28;20244;-76
2022/10/05 04:41:25;;;;;;;;;;;8.80;86.20;;;;;;5020818;28;20685;-77
2022/10/05 04:44:01;;;;;;;;;;;8.80;86.30;;;;;;5031225;28;19951;-76
2022/10/05 04:46:36;;;;;;;;;;;8.80;86.30;;;;;;5046008;28;19932;-78
2022/10/05 04:49:18;;;;;;;;;;;8.70;86.50;;;;;;5023199;28;19929;-76
2022/10/05 04:51:51;;;;;;;;;;;8.70;86.40;;;;;;5033195;28;19984;-76
2022/10/05 04:54:23;;;;;;;;;;;8.70;86.30;;;;;;5026766;28;19932;-75
2022/10/05 04:56:52;;;;;;;;;;;8.70;86.30;;;;;;5022749;28;20032;-78
2022/10/05 04:59:28;;;;;;;;;;;8.60;86.30;;;;;;5018692;28;20018;-77
2022/10/05 05:02:03;;;;;;;;;;;8.60;86.30;;;;;;5027513;28;19929;-77
2022/10/05 05:04:42;;;;;;;;;;;8.60;86.40;;;;;;5019942;28;19929;-77
2022/10/05 05:07:15;;;;;;;;;;;8.60;86.40;;;;;;5041386;28;19935;-78
2022/10/05 05:09:56;;;;;;;;;;;8.60;86.60;;;;;;5021011;28;20024;-77
2022/10/05 05:12:26;;;;;;;;;;;8.60;86.70;;;;;;5040915;28;20557;-77
2022/10/05 05:15:01;;;;;;;;;;;8.60;86.70;;;;;;5043224;28;19988;-78
2022/10/05 05:17:33;;;;;;;;;;;8.60;86.70;;;;;;5016621;28;20410;-78
2022/10/05 05:20:09;;;;;;;;;;;8.50;86.70;;;;;;5037534;28;19925;-78
2022/10/05 05:22:45;;;;;;;;;;;8.50;86.80;;;;;;5025784;28;19924;-75
2022/10/05 05:25:19;;;;;;;;;;;8.50;86.90;;;;;;5032074;28;19925;-76
2022/10/05 05:27:51;;;;;;;;;;;8.50;87.00;;;;;;5026780;28;19929;-78
2022/10/05 05:30:22;;;;;;;;;;;8.60;86.90;;;;;;5028871;28;19983;-77
2022/10/05 05:32:57;;;;;;;;;;;8.50;86.90;;;;;;5043192;28;19960;-77
2022/10/05 05:35:39;;;;;;;;;;;8.60;86.90;;;;;;5044124;28;19925;-77
2022/10/05 05:38:12;;;;;;;;;;;8.60;87.00;;;;;;5024696;28;20053;-75
2022/10/05 05:40:43;;;;;;;;;;;8.60;87.10;;;;;;5033582;28;19929;-77
2022/10/05 05:43:15;;;;;;;;;;;8.60;87.00;;;;;;5031448;28;20341;-77
2022/10/05 05:45:43;;;;;;;;;;;8.60;86.90;;;;;;5040777;28;19937;-76
2022/10/05 05:48:16;;;;;;;;;;;8.60;87.00;;;;;;5029048;28;19959;-77
2022/10/05 05:50:48;;;;;;;;;;;8.60;87.00;;;;;;5035237;28;20413;-77
2022/10/05 05:53:18;;;;;;;;;;;8.60;87.10;;;;;;5048496;28;19940;-77
2022/10/05 05:55:46;;;;;;;;;;;8.60;87.10;;;;;;5050203;28;20274;-77
2022/10/05 05:58:18;;;;;;;;;;;8.60;87.20;;;;;;5039887;28;20334;-79
2022/10/05 06:00:47;;;;;;;;;;;8.60;87.20;;;;;;5038144;28;20294;-78
2022/10/05 06:03:16;;;;;;;;;;;8.60;87.20;;;;;;5038833;28;19936;-76
2022/10/05 06:05:48;;;;;;;;;;;8.60;87.20;;;;;;5033429;28;19929;-77
2022/10/05 06:08:17;;;;;;;;;;;8.60;87.20;;;;;;5039662;28;19928;-77
2022/10/05 06:10:48;;;;;;;;;;;8.60;87.20;;;;;;5039904;28;19925;-77
2022/10/05 06:13:17;;;;;;;;;;;8.60;87.20;;;;;;5033390;28;19958;-75
2022/10/05 06:15:46;;;;;;;;;;;8.60;87.30;;;;;;5025760;28;20012;-76
2022/10/05 06:18:14;;;;;;;;;;;8.60;87.10;;;;;;5042013;28;19929;-77
2022/10/05 06:20:44;;;;;;;;;;;8.60;87.20;;;;;;5044830;28;19936;-77
2022/10/05 06:23:16;;;;;;;;;;;8.70;87.20;;;;;;5040234;28;19968;-76
2022/10/05 06:25:48;;;;;;;;;;;8.70;87.30;;;;;;5035256;28;19929;-76
2022/10/05 06:28:15;;;;;;;;;;;8.70;87.30;;;;;;5012717;28;19929;-77
2022/10/05 06:30:51;;;;;;;;;;;8.70;87.40;;;;;;5020619;28;19928;-75
2022/10/05 06:33:22;;;;;;;;;;;8.70;87.30;;;;;;5018035;28;20035;-77
2022/10/05 06:35:54;;;;;;;;;;;8.80;86.90;;;;;;5034350;28;20337;-76
2022/10/05 06:38:31;;;;;;;;;;;8.80;86.70;;;;;;5040843;28;19983;-78
2022/10/05 06:41:04;;;;;;;;;;;8.90;86.80;;;;;;5026842;28;19936;-73
2022/10/05 06:43:36;;;;;;;;;;;8.80;86.70;;;;;;5048764;28;19964;-76
2022/10/05 06:46:35;;;;;;;;;;;8.80;86.90;;;;;;5036595;28;19932;-76
2022/10/05 06:49:17;;;;;;;;;;;8.90;86.90;;;;;;5033612;28;20567;-76
2022/10/05 06:51:50;;;;;;;;;;;8.90;86.90;;;;;;5030917;28;20059;-76
2022/10/05 06:54:35;;;;;;;;;;;8.90;86.90;;;;;;5040684;28;24395;-77
2022/10/05 06:57:04;;;;;;;;;;;8.90;86.90;;;;;;5026942;28;19924;-75
2022/10/05 06:59:36;;;;;;;;;;;8.90;86.80;;;;;;5019798;28;20382;-77
2022/10/05 07:02:09;;;;;;;;;;;8.90;86.90;;;;;;5033861;28;19975;-77
2022/10/05 07:04:40;;;;;;;;;;;9.00;86.90;;;;;;5038166;28;19967;-77
2022/10/05 07:07:12;;;;;;;;;;;9.00;86.80;;;;;;5043841;28;19928;-77
2022/10/05 07:09:47;;;;;;;;;;;9.10;86.70;;;;;;5038872;28;19925;-77
2022/10/05 07:12:29;;;;;;;;;;;9.10;86.70;;;;;;5019562;28;20019;-77
2022/10/05 07:15:02;;;;;;;;;;;9.20;86.50;;;;;;5027619;28;19968;-76
2022/10/05 07:17:41;;;;;;;;;;;9.30;86.70;;;;;;5037592;28;19933;-77
2022/10/05 07:20:11;;;;;;;;;;;9.30;86.40;;;;;;5021356;28;19929;-77
2022/10/05 07:22:48;;;;;;;;;;;9.30;86.70;;;;;;5009582;28;19975;-78
2022/10/05 07:25:19;;;;;;;;;;;9.40;86.80;;;;;;5025060;28;20080;-77
2022/10/05 07:27:48;;;;;;;;;;;9.40;86.70;;;;;;5007208;28;19941;-76
2022/10/05 07:30:15;;;;;;;;;;;9.40;86.70;;;;;;5039038;28;19932;-77
2022/10/05 07:32:45;;;;;;;;;;;9.40;86.60;;;;;;5030063;28;20353;-77
2022/10/05 07:37:56;;;;;;;;;;;9.40;86.30;;;;;;5049072;28;20002;-76
2022/10/05 07:40:33;;;;;;;;;;;9.50;86.30;;;;;;5025851;28;19937;-77
2022/10/05 07:43:02;;;;;;;;;;;9.60;85.90;;;;;;5044507;28;20286;-78
2022/10/05 07:45:33;;;;;;;;;;;9.60;86.60;;;;;;5038061;28;20009;-77
2022/10/05 07:48:13;;;;;;;;;;;9.70;85.90;;;;;;5019482;28;19982;-77
2022/10/05 07:50:42;;;;;;;;;;;9.70;85.90;;;;;;5022734;28;19928;-76
2022/10/05 07:53:13;;;;;;;;;;;9.70;86.20;;;;;;5040756;28;20301;-76
2022/10/05 07:55:44;;;;;;;;;;;9.80;85.70;;;;;;5042921;28;19928;-77
2022/10/05 07:58:16;;;;;;;;;;;9.80;86.60;;;;;;5016965;28;19954;-76
2022/10/05 08:00:54;;;;;;;;;;;9.90;86.80;;;;;;5016264;28;19936;-75
2022/10/05 08:03:26;;;;;;;;;;;10.00;86.20;;;;;;5039914;28;19936;-77
2022/10/05 08:05:53;;;;;;;;;;;10.10;87.00;;;;;;5043286;28;19933;-78
2022/10/05 08:08:24;;;;;;;;;;;10.10;86.30;;;;;;5040605;28;19940;-78
2022/10/05 08:10:56;;;;;;;;;;;10.10;87.00;;;;;;5042210;28;19924;-77
2022/10/05 08:13:27;;;;;;;;;;;10.20;87.00;;;;;;5037559;28;19928;-78
2022/10/05 08:15:57;;;;;;;;;;;10.20;86.50;;;;;;5043747;28;19928;-77
2022/10/05 08:18:36;;;;;;;;;;;10.20;86.70;;;;;;5036756;28;19940;-76
2022/10/05 08:21:05;;;;;;;;;;;10.30;87.40;;;;;;5043516;28;20011;-77
2022/10/05 08:23:34;;;;;;;;;;;10.50;87.30;;;;;;5048301;28;20337;-75
2022/10/05 08:26:06;;;;;;;;;;;10.60;87.10;;;;;;5036349;28;19928;-76
2022/10/05 08:28:35;;;;;;;;;;;10.60;87.20;;;;;;5041462;28;19929;-77
2022/10/05 08:31:08;;;;;;;;;;;10.70;87.60;;;;;;5043060;28;19929;-77
2022/10/05 08:33:40;;;;;;;;;;;10.90;87.50;;;;;;5041042;28;19925;-76
2022/10/05 08:36:10;;;;;;;;;;;11.10;87.40;;;;;;5039133;28;19944;-77
2022/10/05 08:38:37;;;;;;;;;;;11.20;87.20;;;;;;5042585;28;19924;-77
2022/10/05 08:41:22;;;;;;;;;;;11.20;87.20;;;;;;5028227;28;19941;-77
2022/10/05 08:44:04;;;;;;;;;;;11.40;87.60;;;;;;5046316;28;19929;-76
2022/10/05 08:46:40;;;;;;;;;;;11.40;87.30;;;;;;5044749;28;20371;-77
2022/10/05 08:49:14;;;;;;;;;;;11.60;87.40;;;;;;5014140;28;20329;-77
2022/10/05 08:51:54;;;;;;;;;;;11.60;87.60;;;;;;5043225;28;19939;-77
2022/10/05 08:54:28;;;;;;;;;;;11.70;87.80;;;;;;5046083;28;20388;-77
2022/10/05 08:57:06;;;;;;;;;;;11.90;87.50;;;;;;5040476;28;19936;-77
2022/10/05 08:59:46;;;;;;;;;;;12.10;87.50;;;;;;5019642;28;19929;-77
2022/10/05 09:02:18;;;;;;;;;;;12.20;87.40;;;;;;5023496;28;19935;-77
2022/10/05 09:04:53;;;;;;;;;;;12.30;87.70;;;;;;5021460;28;19965;-79
2022/10/05 09:07:27;;;;;;;;;;;12.40;87.30;;;;;;5014612;28;19929;-78
2022/10/05 09:10:15;;;;;;;;;;;12.50;87.60;;;;;;5019336;28;19929;-78
2022/10/05 09:13:04;;;;;;;;;;;12.60;86.80;;;;;;5038300;28;19935;-77
2022/10/05 09:15:42;;;;;;;;;;;12.70;86.90;;;;;;5028791;28;20013;-78
2022/10/05 09:18:26;;;;;;;;;;;12.80;87.00;;;;;;5023759;28;19929;-77
2022/10/05 09:20:54;;;;;;;;;;;12.90;86.70;;;;;;5024646;28;20551;-76
2022/10/05 09:23:35;;;;;;;;;;;13.10;86.70;;;;;;5042324;28;20330;-77
2022/10/05 09:26:07;;;;;;;;;;;13.20;86.40;;;;;;5044717;28;19932;-77
2022/10/05 09:28:41;;;;;;;;;;;13.40;86.00;;;;;;5041679;28;19929;-77
2022/10/05 09:31:17;;;;;;;;;;;13.50;85.70;;;;;;5037780;28;19983;-76
2022/10/05 09:34:08;;;;;;;;;;;13.70;85.80;;;;;;5042347;28;19934;-76
2022/10/05 09:36:54;;;;;;;;;;;13.70;85.20;;;;;;5035076;28;19932;-74
2022/10/05 09:39:25;;;;;;;;;;;13.90;85.00;;;;;;5037286;28;19936;-76
2022/10/05 09:42:09;;;;;;;;;;;13.90;85.00;;;;;;5041741;28;19947;-78
2022/10/05 09:44:53;;;;;;;;;;;14.10;85.10;;;;;;5040861;28;19929;-77
2022/10/05 09:47:34;;;;;;;;;;;14.20;84.40;;;;;;5024832;28;19931;-76
2022/10/05 09:50:17;;;;;;;;;;;14.30;84.70;;;;;;5039984;28;19925;-76
2022/10/05 09:52:56;;;;;;;;;;;14.40;84.20;;;;;;5043420;28;19936;-76
2022/10/05 09:55:38;;;;;;;;;;;14.50;84.30;;;;;;5041989;28;19937;-76
2022/10/05 09:58:33;;;;;;;;;;;14.60;84.70;;;;;;5041081;28;19925;-77
2022/10/05 10:01:05;;;;;;;;;;;14.70;84.50;;;;;;5034071;28;19936;-77
2022/10/05 10:03:56;;;;;;;;;;;14.90;84.40;;;;;;5041853;28;19925;-76
2022/10/05 10:06:38;;;;;;;;;;;14.90;84.40;;;;;;5036439;28;19929;-77
2022/10/05 10:09:12;;;;;;;;;;;15.00;84.40;;;;;;5039948;28;19925;-75
2022/10/05 10:11:43;;;;;;;;;;;15.10;84.60;;;;;;5037441;28;19962;-76
2022/10/05 10:14:25;;;;;;;;;;;15.10;84.60;;;;;;5042261;28;20383;-75
2022/10/05 10:16:59;;;;;;;;;;;15.20;84.80;;;;;;5036934;28;19947;-75
2022/10/05 10:19:36;;;;;;;;;;;15.30;84.60;;;;;;5038070;28;19925;-74
2022/10/05 10:22:21;;;;;;;;;;;15.40;84.30;;;;;;5033779;28;19939;-75
2022/10/05 10:24:55;;;;;;;;;;;15.60;84.60;;;;;;5040918;28;19944;-76
2022/10/05 10:27:34;;;;;;;;;;;15.70;84.30;;;;;;5051422;28;19928;-75
2022/10/05 10:30:17;;;;;;;;;;;15.80;84.30;;;;;;5042197;28;19936;-75
2022/10/05 10:33:00;;;;;;;;;;;15.90;84.00;;;;;;5039013;28;20366;-76
2022/10/05 10:35:31;;;;;;;;;;;15.90;83.90;;;;;;5046278;28;19952;-78
2022/10/05 10:38:18;;;;;;;;;;;16.00;83.70;;;;;;5033148;28;19976;-75
2022/10/05 10:40:52;;;;;;;;;;;16.10;83.30;;;;;;5040908;28;19936;-76
2022/10/05 10:43:26;;;;;;;;;;;16.20;83.40;;;;;;5046157;28;19932;-77
2022/10/05 10:45:57;;;;;;;;;;;16.30;83.10;;;;;;5041559;28;19925;-76
2022/10/05 10:48:42;;;;;;;;;;;16.30;83.10;;;;;;5046731;28;19929;-77
2022/10/05 10:51:13;;;;;;;;;;;16.30;82.50;;;;;;5039361;28;19936;-76
2022/10/05 10:54:02;;;;;;;;;;;16.50;82.10;;;;;;5042937;28;19931;-76
2022/10/05 10:56:39;;;;;;;;;;;16.50;82.40;;;;;;5023063;28;19929;-77
2022/10/05 10:59:26;;;;;;;;;;;16.50;82.40;;;;;;5031995;28;19979;-76
2022/10/05 11:02:02;;;;;;;;;;;16.60;81.80;;;;;;5035291;28;20046;-76
2022/10/05 11:04:42;;;;;;;;;;;16.60;81.80;;;;;;5021034;28;19932;-78
2022/10/05 11:07:24;;;;;;;;;;;16.60;82.20;;;;;;5040996;28;19932;-76
2022/10/05 11:10:03;;;;;;;;;;;16.70;81.90;;;;;;5040393;28;19932;-76
2022/10/05 11:12:56;;;;;;;;;;;16.70;81.70;;;;;;5004840;28;20306;-76
2022/10/05 11:15:53;;;;;;;;;;;16.80;81.30;;;;;;5045566;28;20017;-77
2022/10/05 11:18:25;;;;;;;;;;;16.90;81.60;;;;;;4976451;28;19930;-76
2022/10/05 11:21:04;;;;;;;;;;;16.90;81.30;;;;;;5031129;28;19935;-78
2022/10/05 11:23:48;;;;;;;;;;;16.90;81.40;;;;;;5038873;28;19928;-78
2022/10/05 11:26:26;;;;;;;;;;;16.80;81.50;;;;;;5045669;28;19929;-78
2022/10/05 11:29:05;;;;;;;;;;;16.90;81.40;;;;;;5043384;28;19939;-77
2022/10/05 11:31:37;;;;;;;;;;;16.80;81.70;;;;;;5037092;28;19925;-76
2022/10/05 11:34:20;;;;;;;;;;;16.80;81.60;;;;;;5033993;28;19933;-74
2022/10/05 11:37:05;;;;;;;;;;;16.80;81.70;;;;;;5045775;28;19925;-77
2022/10/05 11:39:42;;;;;;;;;;;16.90;81.20;;;;;;5036863;28;19933;-78
2022/10/05 11:42:28;;;;;;;;;;;16.80;81.20;;;;;;5027834;28;19932;-77
2022/10/05 11:45:07;;;;;;;;;;;16.90;82.00;;;;;;5040048;28;19933;-76
2022/10/05 11:47:37;;;;;;;;;;;16.90;81.90;;;;;;5040287;28;19955;-76
2022/10/05 11:50:11;;;;;;;;;;;16.90;81.20;;;;;;5030636;28;19987;-77
2022/10/05 11:52:40;;;;;;;;;;;17.00;81.40;;;;;;5023889;28;19951;-75
2022/10/05 11:55:14;;;;;;;;;;;17.00;81.50;;;;;;5018642;28;20297;-77
2022/10/05 11:57:46;;;;;;;;;;;17.00;81.00;;;;;;5024380;28;19937;-76
2022/10/05 12:00:16;;;;;;;;;;;17.00;81.80;;;;;;5016614;28;21089;-76
2022/10/05 12:03:02;;;;;;;;;;;17.10;81.70;;;;;;5025354;28;19936;-78
2022/10/05 12:05:32;;;;;;;;;;;17.10;81.70;;;;;;5019079;28;19929;-77
2022/10/05 12:08:06;;;;;;;;;;;17.10;81.70;;;;;;5019274;28;19952;-77
2022/10/05 12:10:36;;;;;;;;;;;17.20;81.60;;;;;;5027642;28;19952;-76
2022/10/05 12:13:18;;;;;;;;;;;17.20;81.70;;;;;;5025670;28;19983;-76
2022/10/05 12:15:47;;;;;;;;;;;17.20;81.60;;;;;;5021748;28;19960;-74
2022/10/05 12:18:17;;;;;;;;;;;17.20;81.50;;;;;;5016496;28;19972;-76
2022/10/05 12:20:46;;;;;;;;;;;17.10;81.80;;;;;;5025762;28;19934;-74
2022/10/05 12:23:17;;;;;;;;;;;17.20;82.00;;;;;;5018018;28;19960;-76
2022/10/05 12:25:45;;;;;;;;;;;17.30;82.00;;;;;;5023304;28;19940;-76
2022/10/05 12:28:15;;;;;;;;;;;17.20;81.90;;;;;;5020256;28;20091;-75
2022/10/05 12:30:59;;;;;;;;;;;17.30;82.10;;;;;;5019072;28;19925;-76
2022/10/05 12:33:30;;;;;;;;;;;17.50;81.50;;;;;;5019106;28;19938;-76
2022/10/05 12:36:01;;;;;;;;;;;17.40;81.50;;;;;;5019218;28;19926;-75
2022/10/05 12:38:30;;;;;;;;;;;17.50;81.30;;;;;;5022724;28;19932;-75
2022/10/05 12:41:04;;;;;;;;;;;17.50;81.30;;;;;;5022781;28;19971;-75
2022/10/05 12:43:34;;;;;;;;;;;17.50;81.40;;;;;;5023207;28;19948;-75
2022/10/05 12:46:07;;;;;;;;;;;17.60;81.30;;;;;;5024990;28;19940;-76
2022/10/05 12:48:41;;;;;;;;;;;17.60;81.60;;;;;;5026268;28;19932;-61
2022/10/05 12:51:11;;;;;;;;;;;17.60;81.30;;;;;;5024605;28;20027;-63
2022/10/05 12:53:47;;;;;;;;;;;17.60;81.40;;;;;;5042318;28;19928;-62
2022/10/05 12:56:21;;;;;;;;;;;17.50;81.30;;;;;;5048111;28;19936;-63
2022/10/05 12:58:51;;;;;;;;;;;17.50;81.60;;;;;;5040645;28;20405;-60
2022/10/05 13:01:25;;;;;;;;;;;17.50;81.70;;;;;;5038121;28;19933;-62
2022/10/05 13:03:54;;;;;;;;;;;17.50;81.90;;;;;;5040509;28;20264;-61
2022/10/05 13:06:26;;;;;;;;;;;17.50;82.00;;;;;;5042378;28;20366;-62
2022/10/05 13:08:55;;;;;;;;;;;17.50;82.00;;;;;;5043207;28;19929;-62
2022/10/05 13:11:27;;;;;;;;;;;17.50;82.10;;;;;;5030853;28;19925;-62
2022/10/05 13:13:57;;;;;;;;;;;17.50;82.40;;;;;;5045203;28;19929;-63
2022/10/05 13:16:29;;;;;;;;;;;17.50;82.30;;;;;;5039898;28;19931;-62
2022/10/05 13:19:00;;;;;;;;;;;17.50;82.30;;;;;;5043386;28;19928;-63
2022/10/05 13:21:31;;;;;;;;;;;17.50;82.40;;;;;;5018193;28;20415;-63
2022/10/05 13:24:00;;;;;;;;;;;17.50;82.20;;;;;;5020685;28;20505;-61
2022/10/05 13:26:29;;;;;;;;;;;17.50;82.50;;;;;;5016926;28;20012;-62
2022/10/05 13:28:58;;;;;;;;;;;17.50;82.70;;;;;;5042833;28;19935;-60
2022/10/05 13:31:27;;;;;;;;;;;17.50;82.80;;;;;;5037447;28;19929;-62
2022/10/05 13:34:01;;;;;;;;;;;17.50;82.50;;;;;;5044475;28;19929;-62
2022/10/05 13:36:32;;;;;;;;;;;17.50;82.80;;;;;;5014572;28;19929;-61
2022/10/05 13:39:03;;;;;;;;;;;17.50;82.70;;;;;;5021096;28;19939;-62
2022/10/05 13:41:33;;;;;;;;;;;17.60;82.70;;;;;;5021314;28;19935;-63
2022/10/05 13:44:09;;;;;;;;;;;17.50;82.80;;;;;;5014474;28;19925;-62
2022/10/05 13:46:38;;;;;;;;;;;17.50;82.80;;;;;;5022132;28;19933;-62
2022/10/05 13:49:19;;;;;;;;;;;17.50;82.60;;;;;;5025259;28;19925;-62
2022/10/05 13:51:51;;;;;;;;;;;17.50;82.80;;;;;;5021054;28;19933;-62
2022/10/05 13:54:20;;;;;;;;;;;17.50;83.00;;;;;;5020290;28;19935;-63
2022/10/05 13:56:51;;;;;;;;;;;17.50;83.00;;;;;;5020177;28;19926;-67
2022/10/05 13:59:24;;;;;;;;;;;17.50;83.30;;;;;;5019352;28;20370;-67
2022/10/05 14:01:55;;;;;;;;;;;17.50;83.20;;;;;;5038135;28;20385;-66
2022/10/05 14:04:24;;;;;;;;;;;17.50;83.20;;;;;;5049130;28;20016;-67
2022/10/05 14:06:51;;;;;;;;;;;17.50;83.20;;;;;;5040864;28;19929;-68
2022/10/05 14:09:29;;;;;;;;;;;17.50;83.30;;;;;;5041620;28;20320;-68
2022/10/05 14:12:11;;;;;;;;;;;17.50;83.20;;;;;;5047928;28;19933;-67
2022/10/05 14:14:42;;;;;;;;;;;17.50;83.20;;;;;;5048596;28;20424;-68
2022/10/05 14:17:14;;;;;;;;;;;17.50;83.10;;;;;;5041971;28;19929;-68
2022/10/05 14:19:43;;;;;;;;;;;17.50;83.40;;;;;;5042785;28;19940;-69
2022/10/05 14:22:12;;;;;;;;;;;17.50;83.10;;;;;;5050165;28;19924;-68
2022/10/05 14:24:47;;;;;;;;;;;17.40;83.10;;;;;;5042249;28;20028;-68
2022/10/05 14:27:21;;;;;;;;;;;17.50;83.40;;;;;;5046693;28;19925;-69
2022/10/05 14:29:59;;;;;;;;;;;17.40;83.40;;;;;;5045486;28;19944;-66
2022/10/05 14:32:27;;;;;;;;;;;17.40;83.50;;;;;;5043467;28;19952;-67
2022/10/05 14:35:04;;;;;;;;;;;17.40;83.50;;;;;;5042193;28;19929;-66
2022/10/05 14:37:41;;;;;;;;;;;17.30;83.30;;;;;;5049377;28;19960;-68
2022/10/05 14:40:22;;;;;;;;;;;17.30;83.70;;;;;;5046837;28;20374;-69
2022/10/05 14:42:49;;;;;;;;;;;17.40;83.50;;;;;;5048860;28;19925;-69
2022/10/05 14:45:18;;;;;;;;;;;17.50;83.30;;;;;;5048314;28;19932;-68
2022/10/05 14:47:47;;;;;;;;;;;17.40;83.10;;;;;;5043484;28;19933;-68
2022/10/05 14:50:17;;;;;;;;;;;17.40;83.40;;;;;;5045594;28;19933;-68
2022/10/05 14:52:46;;;;;;;;;;;17.40;83.50;;;;;;5037601;28;19925;-69
2022/10/05 14:55:34;;;;;;;;;;;17.40;83.50;;;;;;5045141;28;19928;-69
2022/10/05 14:58:12;;;;;;;;;;;17.40;83.40;;;;;;5040196;28;19933;-67
2022/10/05 15:00:47;;;;;;;;;;;17.40;83.30;;;;;;5043737;28;19929;-68
2022/10/05 15:03:21;;;;;;;;;;;17.40;83.50;;;;;;5042152;28;19925;-67